Time;durP1;ratioP1;P1;durP2;ratioP2;P2;SDS_P1;SDS_P2;PMS_P1;PMS_P2;Temp;Humidity;BMP_temperature;BMP_pressure;BME280_temperature;BME280_humidity;BME280_pressure;Samples;Min_cycle;Max_cycle;Signal;HPM_P1;HPM_P2
2024/04/15 00:01:16;;;;;;;4.77;2.70;;;13.60;99.90;;;14.52;100.00;98026.16;5488823;26;20593;-75
2024/04/15 00:03:46;;;;;;;11.97;3.17;;;13.60;99.90;;;14.47;100.00;98025.97;5492186;25;20475;-75
2024/04/15 00:06:14;;;;;;;9.77;3.10;;;13.50;99.90;;;14.33;100.00;98013.91;5490299;25;20477;-76
2024/04/15 00:08:44;;;;;;;6.53;2.23;;;13.30;99.90;;;14.16;100.00;98007.50;5485757;25;21166;-75
2024/04/15 00:11:14;;;;;;;10.60;3.70;;;13.10;99.90;;;14.15;100.00;97999.84;5490720;26;20473;-75
2024/04/15 00:13:44;;;;;;;5.30;2.97;;;13.10;99.90;;;14.26;100.00;97999.19;5490364;26;21035;-75
2024/04/15 00:16:12;;;;;;;6.40;2.80;;;13.20;99.90;;;14.35;100.00;97984.78;5490103;26;20895;-75
2024/04/15 00:18:42;;;;;;;6.33;2.60;;;13.40;99.90;;;14.35;100.00;97988.22;5489899;26;20481;-75
2024/04/15 00:21:10;;;;;;;4.13;2.27;;;13.40;99.90;;;14.20;100.00;97974.50;5488999;26;20541;-75
2024/04/15 00:23:41;;;;;;;8.73;2.50;;;13.20;99.90;;;14.14;100.00;97967.47;5491693;26;20475;-75
2024/04/15 00:26:09;;;;;;;4.77;2.83;;;13.20;99.90;;;14.14;100.00;97975.38;5489607;26;21348;-75
2024/04/15 00:28:42;;;;;;;3.70;2.50;;;13.20;99.90;;;14.14;100.00;97972.75;5490674;26;20462;-75
2024/04/15 00:31:09;;;;;;;8.10;2.83;;;13.20;99.90;;;13.98;100.00;97973.25;5485551;25;20478;-75
2024/04/15 00:33:40;;;;;;;3.80;2.50;;;12.90;99.90;;;13.99;100.00;97966.94;5489309;26;20471;-75
2024/04/15 00:36:07;;;;;;;5.50;2.80;;;13.00;99.90;;;13.91;100.00;97960.13;5490269;26;21021;-75
2024/04/15 00:38:37;;;;;;;5.93;2.97;;;12.90;99.90;;;13.89;100.00;97949.00;5485740;26;21146;-75
2024/04/15 00:41:05;;;;;;;5.43;2.60;;;12.80;99.90;;;14.00;100.00;97952.78;5490401;25;21137;-74
2024/04/15 00:43:35;;;;;;;6.20;2.50;;;13.00;99.90;;;14.07;100.00;97938.59;5490743;26;20473;-76
2024/04/15 00:46:06;;;;;;;5.00;2.60;;;13.10;99.90;;;14.09;100.00;97933.91;5484955;26;20481;-75
2024/04/15 00:48:36;;;;;;;3.27;2.57;;;13.20;99.90;;;14.08;100.00;97926.25;5487697;25;20494;-75
2024/04/15 00:51:04;;;;;;;12.67;3.13;;;13.10;99.90;;;14.14;100.00;97922.78;5490269;26;20880;-75
2024/04/15 00:53:35;;;;;;;3.47;2.80;;;13.20;99.90;;;14.12;100.00;97916.94;5490202;26;20470;-75
2024/04/15 00:56:04;;;;;;;8.57;2.60;;;13.20;99.90;;;14.19;100.00;97915.06;5492278;25;20623;-75
2024/04/15 00:58:36;;;;;;;9.00;3.10;;;13.20;99.90;;;14.09;100.00;97922.63;5490252;26;20470;-75
2024/04/15 01:01:06;;;;;;;9.60;2.60;;;13.10;99.90;;;14.11;100.00;97915.31;5488543;26;20603;-75
2024/04/15 01:03:37;;;;;;;7.50;2.70;;;13.20;99.90;;;14.08;100.00;97915.75;5487824;25;20476;-75
2024/04/15 01:06:05;;;;;;;4.00;2.60;;;13.00;99.90;;;13.99;100.00;97909.09;5488247;26;20535;-75
2024/04/15 01:08:35;;;;;;;7.73;2.70;;;13.00;99.90;;;13.95;100.00;97910.56;5488993;26;20564;-75
2024/04/15 01:11:04;;;;;;;3.57;2.83;;;12.90;99.90;;;14.03;100.00;97907.66;5487464;26;20993;-75
2024/04/15 01:13:34;;;;;;;9.03;2.60;;;13.00;99.90;;;14.08;100.00;97906.03;5486091;26;20476;-76
2024/04/15 01:16:02;;;;;;;9.43;2.87;;;13.10;99.90;;;14.11;100.00;97904.78;5490130;26;20469;-75
2024/04/15 01:18:35;;;;;;;3.93;2.60;;;13.20;99.90;;;14.12;100.00;97893.25;5488784;26;20928;-75
2024/04/15 01:21:03;;;;;;;4.40;2.50;;;13.20;99.90;;;14.16;100.00;97886.53;5485626;26;20473;-76
2024/04/15 01:23:40;;;;;;;4.73;2.80;;;13.20;99.90;;;14.16;100.00;97886.53;5488667;26;20523;-75
2024/04/15 01:26:10;;;;;;;5.60;2.50;;;13.20;99.90;;;14.14;100.00;97888.59;5484484;26;21030;-75
2024/04/15 01:28:40;;;;;;;7.70;3.03;;;13.20;99.90;;;14.18;100.00;97873.19;5485991;26;20540;-75
2024/04/15 01:31:08;;;;;;;5.50;2.63;;;13.30;99.90;;;14.13;100.00;97878.28;5482289;26;20478;-75
2024/04/15 01:33:38;;;;;;;5.17;2.70;;;13.20;99.90;;;14.15;100.00;97874.41;5485142;25;21117;-75
2024/04/15 01:36:07;;;;;;;6.40;3.00;;;13.20;99.90;;;14.18;100.00;97868.72;5486759;26;20560;-75
2024/04/15 01:38:37;;;;;;;4.40;2.50;;;13.30;99.90;;;14.18;100.00;97862.66;5487543;26;20530;-75
2024/04/15 01:41:04;;;;;;;3.30;2.57;;;13.20;99.90;;;14.18;100.00;97871.38;5488572;26;20480;-75
2024/04/15 01:43:37;;;;;;;7.70;2.30;;;13.20;99.90;;;14.07;100.00;97877.31;5488641;26;20494;-75
2024/04/15 01:46:04;;;;;;;3.70;2.53;;;13.10;99.90;;;14.09;100.00;97864.75;5484626;26;20493;-75
2024/04/15 01:48:35;;;;;;;5.73;2.60;;;13.20;99.90;;;14.07;100.00;97853.63;5485133;26;20862;-75
2024/04/15 01:51:03;;;;;;;8.20;3.37;;;13.20;99.90;;;14.03;100.00;97865.59;5488410;25;20484;-75
2024/04/15 01:53:33;;;;;;;3.80;2.63;;;13.10;99.90;;;13.99;100.00;97859.16;5491587;26;20471;-75
2024/04/15 01:56:00;;;;;;;3.33;2.70;;;13.00;99.90;;;13.92;100.00;97859.19;5492897;26;20492;-76
2024/04/15 01:58:31;;;;;;;9.07;3.20;;;12.90;99.90;;;13.83;100.00;97859.66;5492566;26;20474;-75
2024/04/15 02:01:05;;;;;;;6.10;3.00;;;12.80;99.90;;;13.79;100.00;97854.03;5495552;25;20470;-75
2024/04/15 02:03:35;;;;;;;7.00;2.90;;;12.80;99.90;;;13.85;100.00;97847.13;5491886;26;21037;-75
2024/04/15 02:06:04;;;;;;;7.93;3.10;;;12.80;99.90;;;13.76;100.00;97845.75;5491512;25;20474;-75
2024/04/15 02:08:34;;;;;;;11.60;3.00;;;12.70;99.90;;;13.75;100.00;97855.47;5491332;26;20521;-75
2024/04/15 02:11:02;;;;;;;6.47;2.80;;;12.70;99.90;;;13.80;100.00;97852.22;5491984;26;20472;-75
2024/04/15 02:13:32;;;;;;;3.20;2.43;;;12.80;99.90;;;13.73;100.00;97862.78;5492474;26;21031;-75
2024/04/15 02:15:59;;;;;;;5.20;2.70;;;12.70;99.90;;;13.82;100.00;97858.06;5487734;26;20913;-75
2024/04/15 02:18:32;;;;;;;4.33;2.83;;;12.80;99.90;;;13.82;100.00;97864.13;5488029;26;20494;-76
2024/04/15 02:21:01;;;;;;;8.03;2.40;;;12.90;99.90;;;13.81;100.00;97867.78;5486893;25;20940;-76
2024/04/15 02:23:31;;;;;;;5.30;3.10;;;12.80;99.90;;;13.83;100.00;97870.19;5489333;26;20526;-75
2024/04/15 02:25:58;;;;;;;10.23;3.40;;;12.90;99.90;;;13.72;100.00;97868.22;5488879;26;20577;-75
2024/04/15 02:28:28;;;;;;;4.03;2.63;;;12.80;99.90;;;13.78;100.00;97865.56;5489143;25;21054;-75
2024/04/15 02:30:56;;;;;;;5.83;2.90;;;12.80;99.90;;;13.74;100.00;97863.59;5488759;26;20480;-75
2024/04/15 02:33:26;;;;;;;4.00;2.40;;;12.70;99.90;;;13.80;100.00;97858.28;5489333;26;21020;-75
2024/04/15 02:35:56;;;;;;;5.83;2.77;;;12.90;99.90;;;13.84;100.00;97861.28;5488783;25;20490;-75
2024/04/15 02:38:26;;;;;;;7.00;3.47;;;12.90;99.90;;;13.87;100.00;97869.56;5489480;26;20494;-75
2024/04/15 02:40:54;;;;;;;10.73;3.30;;;13.00;99.90;;;13.80;100.00;97871.41;5488386;26;20505;-75
2024/04/15 02:43:25;;;;;;;5.70;3.17;;;12.90;99.90;;;13.78;100.00;97870.81;5494066;26;20477;-75
2024/04/15 02:45:52;;;;;;;6.20;2.97;;;13.00;99.90;;;13.70;100.00;97865.81;5491250;26;20855;-74
2024/04/15 02:48:23;;;;;;;7.93;3.00;;;12.90;99.90;;;13.67;100.00;97865.44;5491700;26;20482;-75
2024/04/15 02:50:50;;;;;;;11.03;3.60;;;12.80;99.90;;;13.74;100.00;97855.69;5491684;26;20491;-75
2024/04/15 02:53:23;;;;;;;10.33;3.20;;;12.80;99.90;;;13.74;100.00;97846.00;5493365;25;20868;-75
2024/04/15 02:55:53;;;;;;;6.90;2.83;;;13.00;99.90;;;13.73;100.00;97841.75;5491595;26;20585;-75
2024/04/15 02:58:23;;;;;;;8.23;3.53;;;12.90;99.90;;;13.77;100.00;97842.94;5488550;26;20534;-76
2024/04/15 03:00:50;;;;;;;9.10;3.13;;;13.00;99.90;;;13.79;100.00;97848.78;5486825;26;20461;-75
2024/04/15 03:03:21;;;;;;;5.43;3.13;;;13.00;99.90;;;13.86;100.00;97838.22;5492529;26;20529;-74
2024/04/15 03:05:48;;;;;;;7.50;3.27;;;13.00;99.90;;;13.84;100.00;97832.38;5490780;26;21018;-75
2024/04/15 03:08:18;;;;;;;6.00;3.13;;;12.90;99.90;;;13.89;100.00;97827.28;5492968;26;20470;-75
2024/04/15 03:10:49;;;;;;;4.70;2.60;;;13.00;99.90;;;13.89;100.00;97819.38;5491191;26;20506;-75
2024/04/15 03:13:19;;;;;;;6.07;3.37;;;13.00;99.90;;;13.91;100.00;97828.69;5491970;26;20495;-75
2024/04/15 03:15:53;;;;;;;5.47;2.90;;;13.00;99.90;;;13.88;100.00;97825.69;5486796;25;21101;-75
2024/04/15 03:18:23;;;;;;;5.27;2.87;;;13.00;99.90;;;13.90;100.00;97819.19;5487117;26;20511;-74
2024/04/15 03:20:51;;;;;;;8.27;3.03;;;13.00;99.90;;;13.87;100.00;97824.06;5487659;25;20533;-75
2024/04/15 03:23:21;;;;;;;9.67;2.47;;;13.00;99.90;;;13.87;100.00;97816.19;5493186;25;20526;-74
2024/04/15 03:25:51;;;;;;;6.40;2.80;;;13.00;99.90;;;13.79;100.00;97822.50;5488649;26;20480;-75
2024/04/15 03:28:21;;;;;;;9.03;3.23;;;12.90;99.90;;;13.79;100.00;97830.38;5488606;26;21092;-75
2024/04/15 03:30:49;;;;;;;7.83;3.70;;;12.90;99.90;;;13.75;100.00;97831.00;5487407;26;20484;-75
2024/04/15 03:33:23;;;;;;;5.90;2.93;;;12.90;99.90;;;13.75;100.00;97831.00;5487431;26;21222;-75
2024/04/15 03:35:50;;;;;;;4.87;3.13;;;12.90;99.90;;;13.73;100.00;97825.16;5489232;26;20864;-75
2024/04/15 03:38:20;;;;;;;9.50;3.70;;;12.90;99.90;;;13.74;100.00;97824.97;5490466;25;20489;-74
2024/04/15 03:40:50;;;;;;;3.67;2.80;;;12.80;99.90;;;13.71;100.00;97817.47;5489280;26;20886;-75
2024/04/15 03:43:23;;;;;;;10.57;3.50;;;12.80;99.90;;;13.74;100.00;97814.47;5488885;26;20457;-75
2024/04/15 03:45:51;;;;;;;8.90;3.70;;;12.80;99.90;;;13.72;100.00;97818.28;5489259;26;20573;-75
2024/04/15 03:48:21;;;;;;;7.00;3.80;;;12.80;99.90;;;13.75;100.00;97820.50;5487921;26;20463;-75
2024/04/15 03:50:48;;;;;;;8.63;3.47;;;12.80;99.90;;;13.76;100.00;97816.84;5488121;26;20572;-75
2024/04/15 03:53:19;;;;;;;3.80;2.73;;;12.90;99.90;;;13.71;100.00;97808.81;5489646;25;20532;-75
2024/04/15 03:55:52;;;;;;;6.17;3.80;;;12.80;99.90;;;13.70;100.00;97808.00;5491841;26;21040;-75
2024/04/15 03:58:24;;;;;;;6.03;3.00;;;12.80;99.90;;;13.69;100.00;97806.38;5492249;26;20594;-75
2024/04/15 04:01:00;;;;;;;14.83;3.17;;;12.70;99.90;;;13.65;100.00;97815.72;5491431;25;20592;-74
2024/04/15 04:03:30;;;;;;;6.77;2.73;;;12.80;99.90;;;13.69;100.00;97809.00;5488559;26;20466;-75
2024/04/15 04:05:58;;;;;;;6.40;3.10;;;12.70;99.90;;;13.67;100.00;97797.94;5490422;26;20478;-75
2024/04/15 04:08:41;;;;;;;5.93;2.70;;;12.70;99.90;;;13.66;100.00;97798.94;5488383;25;20524;-75
2024/04/15 04:11:10;;;;;;;4.73;3.27;;;12.70;99.90;;;13.65;100.00;97804.38;5497170;26;20533;-75
2024/04/15 04:13:42;;;;;;;6.03;2.80;;;12.70;99.90;;;13.63;100.00;97795.94;5489675;26;20523;-75
2024/04/15 04:16:12;;;;;;;14.23;3.07;;;12.70;99.90;;;13.50;100.00;97796.81;5492419;26;20463;-74
2024/04/15 04:18:42;;;;;;;4.00;2.60;;;12.70;99.90;;;13.46;100.00;97809.56;5495269;25;20530;-74
2024/04/15 04:21:11;;;;;;;10.50;3.00;;;12.70;99.90;;;13.45;100.00;97804.53;5490845;25;21059;-75
2024/04/15 04:23:41;;;;;;;3.50;2.23;;;12.70;99.90;;;13.47;100.00;97805.09;5492630;26;20518;-74
2024/04/15 04:26:09;;;;;;;6.13;2.80;;;12.70;99.90;;;13.46;100.00;97812.19;5495042;26;20985;-75
2024/04/15 04:28:41;;;;;;;8.67;3.20;;;12.60;99.90;;;13.44;100.00;97813.41;5493361;25;20474;-75
2024/04/15 04:31:09;;;;;;;6.67;3.30;;;12.70;99.90;;;13.36;100.00;97817.09;5492103;26;20523;-75
2024/04/15 04:33:39;;;;;;;6.37;2.67;;;12.60;99.90;;;13.37;100.00;97810.81;5486394;26;20482;-79
2024/04/15 04:36:07;;;;;;;17.27;9.30;;;12.50;99.90;;;13.32;100.00;97810.66;5491289;25;20968;-74
2024/04/15 04:38:37;;;;;;;5.13;3.07;;;12.50;99.90;;;13.26;100.00;97811.47;5486512;25;20475;-75
2024/04/15 04:41:04;;;;;;;6.77;3.10;;;12.40;99.90;;;13.23;100.00;97806.66;5489905;26;20459;-75
2024/04/15 04:43:35;;;;;;;4.67;2.97;;;12.40;99.90;;;13.25;100.00;97806.44;5490166;26;20479;-75
2024/04/15 04:46:12;;;;;;;5.57;3.07;;;12.40;99.90;;;13.29;100.00;97808.47;5492463;26;20478;-75
2024/04/15 04:48:42;;;;;;;10.40;4.70;;;12.40;99.90;;;13.24;100.00;97804.84;5491417;26;21317;-81
2024/04/15 04:51:11;;;;;;;12.93;3.10;;;12.40;99.90;;;13.24;100.00;97805.63;5490680;26;21137;-75
2024/04/15 04:53:41;;;;;;;6.23;2.90;;;12.40;99.90;;;13.24;100.00;97807.47;5488483;26;20567;-74
2024/04/15 04:56:10;;;;;;;7.27;2.40;;;12.40;99.90;;;13.27;100.00;97813.09;5491410;26;20488;-75
2024/04/15 04:58:41;;;;;;;5.07;2.17;;;12.40;99.90;;;13.29;100.00;97803.22;5495759;26;20481;-75
2024/04/15 05:01:14;;;;;;;10.87;3.20;;;12.40;99.90;;;13.24;100.00;97813.53;5489074;26;20488;-74
2024/04/15 05:03:46;;;;;;;11.00;2.60;;;12.40;99.90;;;13.22;100.00;97810.31;5488088;26;20917;-75
2024/04/15 05:06:17;;;;;;;4.23;2.07;;;12.40;99.90;;;13.25;100.00;97809.88;5485985;25;20502;-75
2024/04/15 05:08:48;;;;;;;3.70;1.80;;;12.40;99.90;;;13.20;100.00;97806.25;5485757;26;20500;-75
2024/04/15 05:11:19;;;;;;;2.20;1.77;;;12.40;99.90;;;13.21;100.00;97803.44;5482144;26;20468;-74
2024/04/15 05:13:46;;;;;;;2.90;2.03;;;12.40;99.90;;;13.20;100.00;97790.50;5486280;26;20482;-75
2024/04/15 05:16:19;;;;;;;3.80;1.93;;;12.30;99.90;;;13.15;100.00;97793.78;5488066;26;20794;-74
2024/04/15 05:18:47;;;;;;;5.70;2.07;;;12.20;99.90;;;13.17;100.00;97797.00;5487233;26;20534;-75
2024/04/15 05:21:19;;;;;;;2.40;1.63;;;12.30;99.90;;;13.14;100.00;97799.22;5488673;26;20481;-75
2024/04/15 05:23:47;;;;;;;7.60;1.90;;;12.30;99.90;;;12.89;100.00;97791.22;5487664;26;20528;-75
2024/04/15 05:26:17;;;;;;;5.43;1.77;;;12.20;99.90;;;12.89;100.00;97793.84;5488643;26;20469;-74
2024/04/15 05:28:45;;;;;;;5.80;1.57;;;12.10;99.90;;;12.94;100.00;97805.34;5490832;26;20881;-75
2024/04/15 05:31:15;;;;;;;3.40;1.40;;;12.10;99.90;;;12.92;100.00;97809.97;5492884;26;20956;-75
2024/04/15 05:33:46;;;;;;;1.87;1.33;;;12.10;99.90;;;12.92;100.00;97811.78;5491472;26;20545;-75
2024/04/15 05:36:16;;;;;;;7.00;1.43;;;12.10;99.90;;;12.91;100.00;97807.59;5492870;26;20531;-75
2024/04/15 05:38:44;;;;;;;2.33;1.37;;;12.10;99.90;;;12.85;100.00;97813.63;5489734;26;21127;-75
2024/04/15 05:41:14;;;;;;;4.40;1.37;;;12.10;99.90;;;12.80;100.00;97826.59;5490427;26;20470;-74
2024/04/15 05:43:41;;;;;;;6.80;1.60;;;12.00;99.90;;;12.76;100.00;97814.88;5489947;25;20598;-74
2024/04/15 05:46:12;;;;;;;2.47;1.27;;;12.00;99.90;;;12.70;100.00;97811.28;5492192;25;20481;-75
2024/04/15 05:48:40;;;;;;;3.83;1.80;;;11.90;99.90;;;12.74;100.00;97803.81;5484454;26;20891;-75
2024/04/15 05:51:16;;;;;;;5.67;1.47;;;11.90;99.90;;;12.67;100.00;97810.88;5488582;26;20484;-80
2024/04/15 05:53:44;;;;;;;4.13;1.97;;;11.80;99.90;;;12.70;100.00;97807.84;5482885;26;20472;-76
2024/04/15 05:56:14;;;;;;;3.00;1.87;;;11.80;99.90;;;12.74;100.00;97803.81;5482147;26;20580;-75
2024/04/15 05:58:42;;;;;;;6.50;1.40;;;11.80;99.90;;;12.71;100.00;97797.13;5488538;26;20905;-75
2024/04/15 06:01:12;;;;;;;6.03;1.60;;;11.80;99.90;;;12.70;100.00;97794.72;5493196;26;20520;-75
2024/04/15 06:03:40;;;;;;;1.70;1.17;;;11.80;99.90;;;12.68;100.00;97791.50;5485389;26;20567;-75
2024/04/15 06:06:13;;;;;;;3.67;2.23;;;11.80;99.90;;;12.67;100.00;97789.91;5480347;26;20479;-76
2024/04/15 06:08:41;;;;;;;5.00;1.73;;;11.80;99.90;;;12.67;100.00;97789.91;5479568;26;20487;-75
2024/04/15 06:11:11;;;;;;;2.87;1.23;;;11.80;99.90;;;12.66;100.00;97788.28;5482244;25;20469;-75
2024/04/15 06:13:39;;;;;;;4.60;1.47;;;11.80;99.90;;;12.52;100.00;97790.94;5480591;26;20518;-75
2024/04/15 06:16:09;;;;;;;9.87;1.87;;;11.80;99.90;;;12.46;100.00;97788.34;5483099;25;20476;-75
2024/04/15 06:18:37;;;;;;;5.90;1.77;;;11.70;99.90;;;12.36;100.00;97791.34;5478510;26;20464;-75
2024/04/15 06:21:07;;;;;;;3.43;1.53;;;11.70;99.90;;;12.38;100.00;97781.50;5483084;25;20527;-75
2024/04/15 06:23:38;;;;;;;2.10;1.37;;;11.70;99.90;;;12.35;100.00;97774.03;5479953;26;20478;-76
2024/04/15 06:26:08;;;;;;;2.00;1.10;;;11.60;99.90;;;12.39;100.00;97769.97;5483020;26;21040;-75
2024/04/15 06:28:36;;;;;;;2.83;1.40;;;11.60;99.90;;;12.38;100.00;97760.50;5480888;26;20532;-75
2024/04/15 06:31:06;;;;;;;3.40;1.30;;;11.60;99.90;;;12.40;100.00;97760.28;5480154;25;21049;-76
2024/04/15 06:33:34;;;;;;;1.87;1.10;;;11.60;99.90;;;12.42;100.00;97759.09;5486943;26;20550;-75
2024/04/15 06:36:05;;;;;;;2.80;1.93;;;11.60;99.90;;;12.44;100.00;97762.31;5483277;25;20472;-79
2024/04/15 06:38:32;;;;;;;7.67;3.60;;;11.70;99.90;;;12.39;100.00;97751.59;5485590;26;20481;-75
2024/04/15 06:41:05;;;;;;;3.03;1.10;;;11.60;99.90;;;12.39;100.00;97746.38;5489101;26;20479;-75
2024/04/15 06:43:33;;;;;;;2.03;1.10;;;11.70;99.90;;;12.36;100.00;97733.66;5491704;25;21054;-75
2024/04/15 06:46:03;;;;;;;2.07;1.40;;;11.70;99.90;;;12.30;100.00;97742.38;5486510;26;21053;-75
2024/04/15 06:48:30;;;;;;;2.83;1.30;;;11.70;99.90;;;12.19;100.00;97729.88;5486944;25;20539;-75
2024/04/15 06:51:01;;;;;;;4.83;1.40;;;11.60;99.90;;;12.21;100.00;97727.06;5484652;26;20479;-75
2024/04/15 06:53:28;;;;;;;4.53;1.20;;;11.50;99.90;;;12.25;100.00;97721.19;5489945;26;20477;-76
2024/04/15 06:55:58;;;;;;;1.30;1.00;;;11.50;99.90;;;12.21;100.00;97717.38;5491375;25;20516;-75
2024/04/15 06:58:29;;;;;;;2.10;1.00;;;11.50;99.90;;;12.23;100.00;97712.72;5487928;26;20485;-75
2024/04/15 07:00:59;;;;;;;2.90;1.00;;;11.50;99.90;;;12.23;100.00;97712.72;5488030;25;21030;-75
2024/04/15 07:03:27;;;;;;;3.70;1.20;;;11.60;99.90;;;12.29;100.00;97709.28;5489457;26;20470;-75
2024/04/15 07:05:57;;;;;;;10.37;4.10;;;11.50;99.90;;;12.33;100.00;97700.00;5482603;26;20480;-79
2024/04/15 07:08:25;;;;;;;3.83;1.30;;;11.60;99.90;;;12.29;100.00;97704.03;5484818;25;20488;-75
2024/04/15 07:10:55;;;;;;;6.40;1.30;;;11.60;99.30;;;12.33;100.00;97699.19;5486043;25;21183;-75
2024/04/15 07:13:23;;;;;;;5.53;1.30;;;11.70;99.50;;;12.43;100.00;97689.88;5486084;25;20477;-74
2024/04/15 07:15:56;;;;;;;2.83;1.33;;;11.70;99.60;;;12.47;100.00;97683.22;5487837;26;20484;-75
2024/04/15 07:18:23;;;;;;;3.33;1.07;;;11.70;99.50;;;12.56;100.00;97674.09;5487205;26;20564;-75
2024/04/15 07:20:54;;;;;;;3.33;1.30;;;11.80;99.60;;;12.65;100.00;97681.72;5487569;26;20598;-75
2024/04/15 07:23:21;;;;;;;2.97;1.03;;;11.90;99.50;;;12.72;100.00;97666.75;5485041;26;21237;-75
2024/04/15 07:25:58;;;;;;;2.90;1.03;;;12.00;99.30;;;12.70;100.00;97660.94;5492583;25;20484;-75
2024/04/15 07:28:29;;;;;;;5.63;1.20;;;12.00;99.30;;;12.74;100.00;97667.38;5484298;26;21044;-75
2024/04/15 07:31:01;;;;;;;7.97;3.87;;;12.10;99.10;;;12.85;100.00;97662.25;5484478;25;20993;-76
2024/04/15 07:33:32;;;;;;;2.80;1.20;;;12.10;99.30;;;12.85;100.00;97669.31;5482037;26;20470;-75
2024/04/15 07:36:00;;;;;;;2.50;1.07;;;12.20;99.10;;;12.92;100.00;97668.25;5487328;26;22278;-75
2024/04/15 07:38:31;;;;;;;1.83;1.00;;;12.30;99.40;;;12.97;100.00;97665.81;5480546;26;20589;-75
2024/04/15 07:40:59;;;;;;;2.00;1.07;;;12.30;98.60;;;12.96;100.00;97658.16;5489790;25;20487;-75
2024/04/15 07:43:30;;;;;;;3.80;1.20;;;12.30;98.20;;;13.03;100.00;97659.72;5486499;26;20528;-75
2024/04/15 07:46:01;;;;;;;2.20;1.10;;;12.30;98.50;;;13.07;100.00;97654.84;5488216;26;20567;-75
2024/04/15 07:48:31;;;;;;;1.03;0.83;;;12.40;98.30;;;13.01;100.00;97655.69;5486788;26;20471;-74
2024/04/15 07:50:58;;;;;;;2.70;1.13;;;12.40;97.80;;;13.06;100.00;97659.28;5497760;26;20588;-74
2024/04/15 07:53:28;;;;;;;4.00;1.23;;;12.40;98.10;;;13.12;100.00;97657.66;5497403;26;20532;-74
2024/04/15 07:55:56;;;;;;;2.50;1.00;;;12.40;97.90;;;13.06;98.74;97658.47;5497042;26;20493;-75
2024/04/15 07:58:26;;;;;;;3.33;1.20;;;12.40;97.40;;;13.03;100.00;97649.22;5494071;26;20484;-75
2024/04/15 08:00:55;;;;;;;4.20;1.60;;;12.40;97.80;;;13.15;100.00;97653.81;5494953;26;20467;-75
2024/04/15 08:03:28;;;;;;;1.10;0.97;;;12.40;98.10;;;13.23;100.00;97656.97;5488407;26;20460;-75
2024/04/15 08:05:56;;;;;;;3.53;1.17;;;12.50;97.90;;;13.28;100.00;97656.34;5491549;25;20511;-74
2024/04/15 08:08:26;;;;;;;4.00;1.03;;;12.60;97.90;;;13.26;98.55;97647.88;5487245;26;21002;-75
2024/04/15 08:10:53;;;;;;;1.53;1.10;;;12.50;97.60;;;13.30;98.48;97649.84;5490158;25;20584;-75
2024/04/15 08:13:24;;;;;;;2.10;1.00;;;12.60;97.70;;;13.34;96.43;97642.34;5490447;26;20489;-75
2024/04/15 08:15:52;;;;;;;2.43;0.90;;;12.60;97.10;;;13.28;92.50;97630.91;5487912;26;20621;-75
2024/04/15 08:18:22;;;;;;;1.63;1.00;;;12.50;96.70;;;13.27;93.74;97628.47;5487354;26;20573;-75
2024/04/15 08:20:58;;;;;;;2.20;1.10;;;12.60;97.00;;;13.34;92.77;97622.16;5485227;26;20517;-74
2024/04/15 08:23:29;;;;;;;3.77;1.00;;;12.60;97.00;;;13.34;90.49;97624.78;5485407;26;20591;-74
2024/04/15 08:25:57;;;;;;;5.73;1.30;;;12.60;96.20;;;13.27;87.31;97603.03;5488114;26;20490;-74
2024/04/15 08:28:27;;;;;;;2.60;0.93;;;12.60;95.60;;;13.22;86.24;97612.56;5487142;26;21119;-75
2024/04/15 08:30:55;;;;;;;5.63;1.20;;;12.60;95.30;;;13.20;84.12;97602.25;5486859;26;20486;-75
2024/04/15 08:33:25;;;;;;;4.77;1.13;;;12.50;95.20;;;13.16;83.48;97603.72;5487459;26;20923;-75
2024/04/15 08:35:53;;;;;;;1.53;1.10;;;12.50;95.10;;;13.15;81.49;97610.00;5483904;26;20481;-75
2024/04/15 08:38:26;;;;;;;1.27;1.00;;;12.50;94.80;;;13.09;79.80;97589.81;5487939;26;20484;-75
2024/04/15 08:41:00;;;;;;;2.63;1.20;;;12.40;94.30;;;13.00;79.79;97580.59;5486182;26;20473;-75
2024/04/15 08:43:32;;;;;;;4.07;1.23;;;12.40;94.10;;;12.93;77.27;97600.84;5486716;26;20535;-76
2024/04/15 08:46:02;;;;;;;2.50;1.10;;;12.30;93.40;;;13.00;78.17;97580.59;5487832;26;20591;-75
2024/04/15 08:48:34;;;;;;;12.17;4.20;;;12.40;94.00;;;13.08;79.13;97575.09;5487410;25;20485;-79
2024/04/15 08:51:02;;;;;;;2.40;1.13;;;12.40;94.20;;;13.12;80.06;97578.91;5485631;26;20469;-75
2024/04/15 08:53:35;;;;;;;3.37;1.20;;;12.50;94.50;;;13.19;81.90;97579.66;5485000;26;20476;-75
2024/04/15 08:56:05;;;;;;;4.10;1.00;;;12.50;94.90;;;13.24;82.42;97565.88;5485682;26;20848;-75
2024/04/15 08:58:36;;;;;;;3.40;1.23;;;12.60;94.80;;;13.27;81.52;97563.63;5487212;26;20527;-75
2024/04/15 09:01:08;;;;;;;5.53;1.20;;;12.60;94.60;;;13.29;81.87;97566.88;5491501;26;20488;-75
2024/04/15 09:03:38;;;;;;;3.80;1.97;;;12.50;94.80;;;13.30;82.08;97562.38;5490668;26;20480;-76
2024/04/15 09:06:09;;;;;;;2.67;1.20;;;12.60;94.90;;;13.37;84.44;97558.69;5490868;26;20896;-75
2024/04/15 09:08:42;;;;;;;2.07;1.07;;;12.70;95.80;;;13.40;90.40;97560.88;5490276;26;20476;-75
2024/04/15 09:11:09;;;;;;;3.83;1.00;;;12.70;96.50;;;13.44;86.92;97546.28;5490962;26;20479;-75
2024/04/15 09:13:39;;;;;;;2.03;1.10;;;12.80;95.80;;;13.52;89.77;97547.84;5488725;26;20786;-75
2024/04/15 09:16:09;;;;;;;1.47;0.97;;;12.80;96.70;;;13.56;91.78;97528.81;5491380;25;20859;-75
2024/04/15 09:18:39;;;;;;;1.50;1.10;;;12.80;96.60;;;13.53;92.49;97526.63;5484576;26;20457;-75
2024/04/15 09:21:08;;;;;;;8.27;1.50;;;12.90;96.70;;;13.58;91.63;97507.56;5488096;26;20644;-75
2024/04/15 09:23:43;;;;;;;4.80;1.20;;;12.90;96.60;;;13.68;92.75;97499.97;5487720;26;20969;-76
2024/04/15 09:26:10;;;;;;;2.47;1.20;;;13.00;96.90;;;13.64;87.41;97501.41;5487923;26;20587;-75
2024/04/15 09:28:40;;;;;;;6.20;1.07;;;12.90;95.70;;;13.71;87.51;97499.50;5486942;26;20535;-75
2024/04/15 09:31:09;;;;;;;2.10;1.10;;;13.00;95.80;;;13.75;86.67;97495.44;5490273;25;20636;-75
2024/04/15 09:33:39;;;;;;;8.20;1.20;;;13.10;95.80;;;13.85;86.67;97505.44;5488322;26;20580;-75
2024/04/15 09:36:08;;;;;;;2.37;1.13;;;13.10;95.90;;;13.89;84.37;97496.06;5488975;26;20473;-75
2024/04/15 09:38:42;;;;;;;2.83;0.90;;;13.10;95.50;;;13.90;83.79;97492.44;5485361;26;20540;-75
2024/04/15 09:41:11;;;;;;;2.47;1.60;;;13.20;95.20;;;13.98;84.90;97486.88;5491468;26;20481;-75
2024/04/15 09:43:47;;;;;;;3.60;1.00;;;13.30;95.80;;;14.00;83.62;97477.72;5483332;26;20969;-75
2024/04/15 09:46:17;;;;;;;4.90;1.40;;;13.20;95.30;;;14.06;83.07;97471.56;5486686;26;20933;-75
2024/04/15 09:48:51;;;;;;;5.37;2.10;;;13.30;95.30;;;14.09;82.44;97462.47;5488763;26;20532;-75
2024/04/15 09:51:23;;;;;;;1.63;1.00;;;13.40;95.20;;;14.17;83.54;97464.75;5489417;26;20477;-76
2024/04/15 09:53:59;;;;;;;4.53;1.00;;;13.50;95.40;;;14.23;83.05;97465.72;5485517;26;20474;-76
2024/04/15 09:56:28;;;;;;;3.83;0.80;;;13.50;95.10;;;14.23;82.59;97455.97;5495170;26;21328;-76
2024/04/15 09:59:01;;;;;;;1.93;1.03;;;13.50;95.20;;;14.28;82.50;97468.44;5501645;26;20855;-77
2024/04/15 10:01:32;;;;;;;3.80;0.90;;;13.50;95.10;;;14.22;81.60;97446.50;5499221;26;20478;-76
2024/04/15 10:04:09;;;;;;;1.93;0.93;;;13.50;94.70;;;14.21;80.19;97444.88;5499654;25;20472;-76
2024/04/15 10:06:47;;;;;;;2.43;1.33;;;13.50;94.70;;;14.16;81.67;97444.72;5500863;26;20525;-76
2024/04/15 10:09:20;;;;;;;2.30;1.30;;;13.40;95.20;;;14.24;84.88;97436.53;5500306;26;21570;-76
2024/04/15 10:11:50;;;;;;;1.37;0.90;;;13.50;95.60;;;14.33;83.62;97440.47;5496896;26;20572;-76
2024/04/15 10:14:22;;;;;;;3.00;1.00;;;13.60;95.40;;;14.28;81.59;97419.28;5496437;26;20474;-76
2024/04/15 10:16:49;;;;;;;5.77;1.20;;;13.50;95.00;;;14.36;82.49;97426.88;5497308;26;20477;-76
2024/04/15 10:19:27;;;;;;;1.73;1.37;;;13.70;95.30;;;14.35;81.24;97401.59;5495391;26;20491;-76
2024/04/15 10:21:55;;;;;;;1.20;0.90;;;13.60;94.80;;;14.40;81.07;97414.09;5497945;26;21156;-76
2024/04/15 10:24:30;;;;;;;2.17;1.03;;;13.70;94.80;;;14.37;79.24;97402.16;5498599;26;20529;-75